23. Mai 2022

Uhrzeit Code Wetter Temp. Sichtweite Wolken Wind METAR/SPECI
09:20
V
16 °C 10 km+ - 140°   140° 11 kt METAR EDDW 230720Z AUTO 14011KT 100V160 CAVOK 16/09 Q1007 NOSIG
08:50
V
16 °C 10 km+ - 130°   130° 9 kt METAR EDDW 230650Z AUTO 13009KT 100V160 CAVOK 16/09 Q1007 NOSIG
08:20
V
15 °C 10 km+ - 120°   120° 8 kt METAR EDDW 230620Z AUTO 12008KT CAVOK 15/08 Q1007 NOSIG
07:50
V
14 °C 10 km+ - 120°   120° 8 kt METAR EDDW 230550Z AUTO 12008KT CAVOK 14/08 Q1007 NOSIG
07:20
V
14 °C 10 km+ - 120°   120° 9 kt METAR EDDW 230520Z AUTO 12009KT CAVOK 14/08 Q1007 NOSIG
06:50
V
13 °C 10 km+ - 120°   120° 7 kt METAR EDDW 230450Z AUTO 12007KT 090V150 CAVOK 13/08 Q1008 NOSIG
06:20
V
12 °C 10 km+ - 130°   130° 8 kt METAR EDDW 230420Z AUTO 13008KT CAVOK 12/07 Q1008 NOSIG
05:50
V
12 °C 10 km+ - 120°   120° 8 kt METAR EDDW 230350Z AUTO 12008KT 090V150 CAVOK 12/07 Q1009 NOSIG
05:20
V
12 °C 10 km+ - 120°   120° 8 kt METAR EDDW 230320Z AUTO 12008KT CAVOK 12/07 Q1009
04:50
V
12 °C 10 km+ - 100°   100° 8 kt METAR EDDW 230250Z AUTO 10008KT CAVOK 12/07 Q1009
04:20
V
12 °C 10 km+ - 110°   110° 8 kt METAR EDDW 230220Z AUTO 11008KT CAVOK 12/07 Q1009
03:50
V
11 °C 10 km+ - 100°   100° 7 kt METAR EDDW 230150Z AUTO 10007KT CAVOK 11/07 Q1010
03:20
V
11 °C 10 km+ - 100°   100° 5 kt METAR EDDW 230120Z AUTO 10005KT CAVOK 11/07 Q1010
02:50
V
11 °C 10 km+ - 090°   090° 5 kt METAR EDDW 230050Z AUTO 09005KT CAVOK 11/08 Q1011
02:20
V
12 °C 10 km+ - 090°   090° 3 kt METAR EDDW 230020Z AUTO 09003KT CAVOK 12/08 Q1011
01:50
V
12 °C 10 km+ - 080°   080° 6 kt METAR EDDW 222350Z AUTO 08006KT CAVOK 12/08 Q1011
01:20
V
12 °C 10 km+ - 080°   080° 6 kt METAR EDDW 222320Z AUTO 08006KT CAVOK 12/08 Q1012
00:50
V
12 °C 10 km+ - 090°   090° 7 kt METAR EDDW 222250Z AUTO 09007KT CAVOK 12/08 Q1012
00:20
V
12 °C 10 km+ - 080°   080° 7 kt METAR EDDW 222220Z AUTO 08007KT CAVOK 12/08 Q1012

22. Mai 2022

Uhrzeit Code Wetter Temp. Sichtweite Wolken Wind METAR/SPECI
23:50
V
12 °C 10 km+ - 080°   080° 6 kt METAR EDDW 222150Z AUTO 08006KT CAVOK 12/08 Q1012
23:20
V
12 °C 10 km+ - 080°   080° 6 kt METAR EDDW 222120Z AUTO 08006KT CAVOK 12/08 Q1012
22:50
V
13 °C 10 km+ - 070°   070° 4 kt METAR EDDW 222050Z AUTO 07004KT CAVOK 13/08 Q1013 NOSIG
22:20
V
13 °C 10 km+ - 110°   110° 3 kt METAR EDDW 222020Z AUTO 11003KT CAVOK 13/09 Q1013 NOSIG
21:50
V
15 °C 10 km+ - 100°   100° 3 kt METAR EDDW 221950Z AUTO 10003KT CAVOK 15/08 Q1013 NOSIG
21:20
V
15 °C 10 km+ - 090°   090° 2 kt METAR EDDW 221920Z AUTO 09002KT CAVOK 15/07 Q1013 NOSIG
20:50
V
17 °C 10 km+ - Var   Var 2 kt METAR EDDW 221850Z AUTO VRB02KT CAVOK 17/07 Q1013 NOSIG
20:20
V
17 °C 10 km+ - 090°   090° 4 kt METAR EDDW 221820Z AUTO 09004KT CAVOK 17/08 Q1013 NOSIG
19:50
V
17 °C 10 km+ - 090°   090° 5 kt METAR EDDW 221750Z AUTO 09005KT CAVOK 17/08 Q1013 NOSIG
19:20
V
18 °C 10 km+ - 100°   100° 5 kt METAR EDDW 221720Z AUTO 10005KT CAVOK 18/07 Q1014
18:50
V
18 °C 10 km+ - Var   Var 2 kt METAR EDDW 221650Z AUTO VRB02KT CAVOK 18/07 Q1014 NOSIG
18:20
V
19 °C 10 km+ - 230°   230° 4 kt METAR EDDW 221620Z AUTO 23004KT 120V260 CAVOK 19/08 Q1014 NOSIG
17:50
V
19 °C 10 km+ - 220°   220° 3 kt METAR EDDW 221550Z AUTO 22003KT 160V280 CAVOK 19/06 Q1014 NOSIG
17:20
V
18 °C 10 km+ - Var   Var 4 kt METAR EDDW 221520Z AUTO VRB04KT CAVOK 18/05 Q1015 NOSIG
16:50
V
19 °C 10 km+ - Var   Var 3 kt METAR EDDW 221450Z AUTO VRB03KT CAVOK 19/07 Q1015 NOSIG
16:20
V
18 °C 10 km+ - 140°   140° 3 kt METAR EDDW 221420Z AUTO 14003KT 090V220 CAVOK 18/06 Q1015 NOSIG
15:50
V
19 °C 10 km+ - 050°   050° 6 kt METAR EDDW 221350Z AUTO 05006KT 020V110 9999 SCT049 19/06 Q1015 TEMPO 33006KT
15:20
V
19 °C 10 km+ - Var   Var 4 kt METAR EDDW 221320Z AUTO VRB04KT 9999 FEW048 19/06 Q1015
14:50
V
19 °C 10 km+ - 270°   270° 4 kt METAR EDDW 221250Z AUTO 27004KT 210V020 9999 FEW046 19/08 Q1016 NOSIG
14:20
V
17 °C 10 km+ 4.600 ft 340°   340° 6 kt METAR EDDW 221220Z AUTO 34006KT 280V040 9999 BKN046 17/06 Q1016 NOSIG
13:50
V
17 °C 10 km+ - 300°   300° 5 kt METAR EDDW 221150Z AUTO 30005KT 250V040 9999 SCT049 17/07 Q1016 BECMG 30006KT
13:20
V
17 °C 10 km+ - Var   Var 3 kt METAR EDDW 221120Z AUTO VRB03KT 9999 SCT045 17/06 Q1017 BECMG 30006KT
12:50
V
16 °C 10 km+ - 320°   320° 5 kt METAR EDDW 221050Z AUTO 32005KT 280V010 9999 SCT044 16/06 Q1017 NOSIG
12:20
V
16 °C 10 km+ - Var   Var 3 kt METAR EDDW 221020Z AUTO VRB03KT 9999 SCT040 16/06 Q1017 BECMG 30005KT
11:50
V
17 °C 10 km+ 4.500 ft Var   Var 3 kt METAR EDDW 220950Z AUTO VRB03KT 9999 SCT037 BKN045 17/07 Q1017 BECMG 25006KT
11:20
V
16 °C 10 km+ 3.200 ft Var   Var 3 kt METAR EDDW 220920Z AUTO VRB03KT 9999 BKN032 BKN041 16/07 Q1017 BECMG 25006KT
10:50
V
16 °C 10 km+ 3.200 ft 240°   240° 4 kt METAR EDDW 220850Z AUTO 24004KT 200V310 9999 BKN032 16/08 Q1017 NOSIG
10:20
V
15 °C 10 km+ - 330°   330° 5 kt METAR EDDW 220820Z AUTO 33005KT 280V020 9999 FEW030 15/08 Q1017 NOSIG
09:50
V
15 °C 10 km+ - 330°   330° 5 kt METAR EDDW 220750Z AUTO 33005KT 270V010 9999 FEW024 15/07 Q1018 NOSIG
09:20
V
14 °C 10 km+ - 310°   310° 6 kt METAR EDDW 220720Z AUTO 31006KT 270V350 9999 FEW019 14/08 Q1018 NOSIG
08:50
V
14 °C 10 km+ - 300°   300° 3 kt METAR EDDW 220650Z AUTO 30003KT 200V010 9999 FEW016 14/09 Q1018 NOSIG
08:20
V
12 °C 10 km+ - Var   Var 2 kt METAR EDDW 220620Z AUTO VRB02KT CAVOK 12/10 Q1018 BECMG 26005KT
07:50
V
11 °C 10 km+ - Var   Var 1 kt METAR EDDW 220550Z AUTO VRB01KT CAVOK 11/09 Q1018 BECMG 26005KT
07:20
V
10 °C 10 km+ - Var   Var 2 kt METAR EDDW 220520Z AUTO VRB02KT CAVOK 10/08 Q1018 BECMG 26005KT
06:50
V
8 °C 8 km - Var   Var 2 kt METAR EDDW 220450Z AUTO VRB02KT 8000 NSC 08/08 Q1018 BECMG 25005KT
06:20
L
7 °C 300 m - 220°   220° 1 kt METAR EDDW 220420Z AUTO 22001KT 1700 0300 R27/0400N BCFG NSC 07/07 Q1018 BECMG 9999
05:50
L
7 °C 200 m - 210°   210° 2 kt METAR EDDW 220350Z AUTO 21002KT 0200 R27/0400U FG NSC 07/07 Q1018 BECMG 28006KT CAVOK
05:20
L
6 °C 350 m - 240°   240° 2 kt METAR EDDW 220320Z AUTO 24002KT 0450 0350 R27/0550N FG NSC 06/06 Q1018
04:50
L
6 °C 400 m - 250°   250° 3 kt METAR EDDW 220250Z AUTO 25003KT 2300 0400 R27/0900U BCFG NCD 06/06 Q1018
04:20
L
6 °C 400 m - 230°   230° 3 kt METAR EDDW 220220Z AUTO 23003KT 0550 0400 R27/0700D FG NSC 06/06 Q1018
03:50
I
7 °C 3,7 km - 230°   230° 3 kt METAR EDDW 220150Z AUTO 23003KT 9000 3700 BR NSC 07/06 Q1018
03:20
L
8 °C 800 m - 260°   260° 1 kt METAR EDDW 220120Z AUTO 26001KT 3600 0800 R27/1900N BCFG NSC 08/08 Q1018
02:50
V
8 °C 10 km+ - 240°   240° 2 kt METAR EDDW 220050Z AUTO 24002KT CAVOK 08/08 Q1018
02:20
V
8 °C 10 km+ - 260°   260° 3 kt METAR EDDW 220020Z AUTO 26003KT CAVOK 08/08 Q1018
01:50
V
8 °C 10 km+ - 230°   230° 3 kt METAR EDDW 212350Z AUTO 23003KT CAVOK 08/07 Q1019
01:20
V
8 °C 10 km+ - 260°   260° 3 kt METAR EDDW 212320Z AUTO 26003KT 220V290 CAVOK 08/07 Q1019
00:50
V
10 °C 10 km+ - 310°   310° 5 kt METAR EDDW 212250Z AUTO 31005KT CAVOK 10/08 Q1019
00:20
V
10 °C 10 km+ - 300°   300° 5 kt METAR EDDW 212220Z AUTO 30005KT CAVOK 10/08 Q1019

21. Mai 2022

Uhrzeit Code Wetter Temp. Sichtweite Wolken Wind METAR/SPECI
23:50
V
11 °C 10 km+ - 300°   300° 6 kt METAR EDDW 212150Z AUTO 30006KT CAVOK 11/08 Q1019
23:20
V
12 °C 10 km+ - 300°   300° 6 kt METAR EDDW 212120Z AUTO 30006KT CAVOK 12/08 Q1019
22:50
V
13 °C 10 km+ - 310°   310° 7 kt METAR EDDW 212050Z AUTO 31007KT CAVOK 13/08 Q1019 NOSIG
22:20
V
13 °C 10 km+ - 310°   310° 7 kt METAR EDDW 212020Z AUTO 31007KT CAVOK 13/08 Q1019 NOSIG
21:50
V
13 °C 10 km+ - 310°   310° 7 kt METAR EDDW 211950Z AUTO 31007KT CAVOK 13/09 Q1019 NOSIG
21:20
V
14 °C 10 km+ - 300°   300° 9 kt METAR EDDW 211920Z AUTO 30009KT 9999 FEW034 14/09 Q1019 BECMG 29004KT
20:50
V
15 °C 10 km+ 3.400 ft 310°   310° 11 kt METAR EDDW 211850Z AUTO 31011KT 9999 -RA BKN034 15/09 Q1019 BECMG 29005KT
20:20
V
15 °C 10 km+ 3.500 ft 300°   300° 9 kt METAR EDDW 211820Z AUTO 30009KT 9999 -RA BKN035 BKN047 15/09 Q1019 NOSIG
19:50
V
16 °C 10 km+ 4.800 ft 310°   310° 11 kt METAR EDDW 211750Z AUTO 31011KT 9999 SCT039 BKN048 16/09 Q1018 NOSIG
19:20
V
16 °C 10 km+ - 310°   310° 12 kt METAR EDDW 211720Z AUTO 31012KT 9999 SCT037 16/09 Q1018 NOSIG
18:50
V
16 °C 10 km+ 3.700 ft 310°   310° 9 kt METAR EDDW 211650Z AUTO 31009KT 9999 BKN037 BKN046 16/09 Q1018 NOSIG
18:20
V
17 °C 10 km+ - 280°   280° 16 kt METAR EDDW 211620Z AUTO 28016KT 9999 SCT040 17/08 Q1018 TEMPO 28015G25KT
17:50
V
17 °C 10 km+ - 280°   280° 13 kt METAR EDDW 211550Z AUTO 28013KT 9999 FEW038 17/09 Q1018 TEMPO 28015G25KT
17:20
V
18 °C 10 km+ - 280°   280° 16 kt METAR EDDW 211520Z AUTO 28016KT 9999 FEW040 18/09 Q1018 TEMPO 28015G25KT
16:50
V
18 °C 10 km+ - 280°   280° 15 kt METAR EDDW 211450Z AUTO 28015KT 9999 FEW041 18/10 Q1018 TEMPO 29015G25KT
16:20
V
17 °C 10 km+ - 280°   280° 16 kt METAR EDDW 211420Z AUTO 28016KT 9999 SCT040 17/09 Q1018 TEMPO 29020G30KT
15:50
V
18 °C 10 km+ - 290°   290° 16 kt METAR EDDW 211350Z AUTO 29016KT 9999 FEW038 18/09 Q1018 TEMPO 29020G30KT
15:20
V
17 °C 10 km+ - 280°   280° 16 kt METAR EDDW 211320Z AUTO 28016KT 9999 SCT039 17/09 Q1018 TEMPO 29020G30KT
14:50
V
17 °C 10 km+ - 280°   280° 18 kt METAR EDDW 211250Z AUTO 28018KT 9999 FEW038 17/09 Q1018 TEMPO 28020G30KT
14:20
V
18 °C 10 km+ - 270°   270° 17 27 kt METAR EDDW 211220Z AUTO 27017G27KT 9999 FEW037 18/09 Q1018 NOSIG
13:50
V
18 °C 10 km+ - 280°   280° 17 kt METAR EDDW 211150Z AUTO 28017KT 9999 SCT036 18/10 Q1018 TEMPO 28020G30KT
13:20
V
17 °C 10 km+ - 280°   280° 16 kt METAR EDDW 211120Z AUTO 28016KT 9999 FEW036 SCT048 17/10 Q1018 TEMPO 28020G30KT
12:50
V
16 °C 10 km+ - 270°   270° 18 kt METAR EDDW 211050Z AUTO 27018KT 9999 FEW035 16/09 Q1017 TEMPO 28020G30KT
12:20
V
17 °C 10 km+ 4.100 ft 280°   280° 18 kt METAR EDDW 211020Z AUTO 28018KT 9999 SCT030 BKN041 17/10 Q1017 TEMPO 28020G30KT
11:50
V
16 °C 10 km+ - 270°   270° 20 kt METAR EDDW 210950Z AUTO 27020KT 9999 FEW026 SCT033 16/10 Q1017 TEMPO 28020G30KT
11:20
V
16 °C 10 km+ - 270°   270° 16 kt METAR EDDW 210920Z AUTO 27016KT 9999 FEW024 16/10 Q1017 TEMPO 27020G30KT
10:50
V
16 °C 10 km+ - 270°   270° 17 kt METAR EDDW 210850Z AUTO 27017KT 9999 FEW027 SCT042 16/11 Q1016 TEMPO 27020G30KT
10:20
V
16 °C 10 km+ 3.500 ft 260°   260° 16 29 kt METAR EDDW 210820Z AUTO 26016G29KT 9999 FEW022 BKN035 BKN042 16/11 Q1016 NOSIG
09:50
M
15 °C 10 km+ 2.500 ft 260°   260° 18 kt METAR EDDW 210750Z AUTO 26018KT 9999 SCT021 BKN025 BKN038 15/11 Q1016 TEMPO 26015G25KT
09:20
V
15 °C 10 km+ - 260°   260° 16 kt METAR EDDW 210720Z AUTO 26016KT 9999 SCT016 SCT021 15/11 Q1016 TEMPO 26015G25KT
Ältere Daten

Laden Sie unsere App herunter

Einfacher Zugriff auf das gesamte Flugwetter auf Ihrem Mobiltelefon und Tablet.
Mit vielen Funktionen, die auf der Website nicht verfügbar sind, wie Offline-Unterstützung und eine persönliche Flughafenliste.

Wir und Dritte verfolgen dein Internetverhalten auf unserer Website mit Cookies. Wenn du fortfährst, gehen wir davon aus, dass du mit unserer Cookie-Richtlinie einverstanden bist. Mehr erfahren